Time;durP1;ratioP1;P1;durP2;ratioP2;P2;SDS_P1;SDS_P2;PMS_P1;PMS_P2;Temp;Humidity;BMP_temperature;BMP_pressure;BME280_temperature;BME280_humidity;BME280_pressure;Samples;Min_cycle;Max_cycle;Signal;HPM_P1;HPM_P2
2021/12/17 00:00:43;;;;;;;64.50;46.40;;;;;;;;;;5012396;28;20038;-57
2021/12/17 00:03:16;;;;;;;65.47;45.37;;;;;;;;;;5021666;28;20041;-57
2021/12/17 00:08:15;;;;;;;61.10;44.73;;;;;;;;;;5026467;28;20049;-54
2021/12/17 00:10:42;;;;;;;63.10;45.47;;;;;;;;;;5018639;28;20037;-54
2021/12/17 00:13:10;;;;;;;63.73;45.67;;;;;;;;;;5025776;28;20076;-52
2021/12/17 00:15:37;;;;;;;59.30;42.77;;;;;;;;;;5024437;28;20037;-56
2021/12/17 00:18:11;;;;;;;66.30;44.67;;;;;;;;;;5024417;28;20120;-54
2021/12/17 00:53:30;;;;;;;64.53;46.63;;;;;;;;;;5019504;28;20124;-56
2021/12/17 00:55:55;;;;;;;63.73;46.03;;;;;;;;;;5020328;28;20483;-56
2021/12/17 00:58:22;;;;;;;64.17;46.27;;;;;;;;;;5022941;28;20132;-55
2021/12/17 01:00:48;;;;;;;64.70;47.40;;;;;;;;;;5024024;28;20064;-56
2021/12/17 01:03:14;;;;;;;65.10;47.27;;;;;;;;;;5019061;28;20050;-55
2021/12/17 01:05:41;;;;;;;69.83;49.60;;;;;;;;;;5028499;28;20042;-53
2021/12/17 01:08:07;;;;;;;72.23;53.20;;;;;;;;;;5027990;28;20091;-54
2021/12/17 01:10:36;;;;;;;66.70;51.37;;;;;;;;;;5030897;28;20034;-55
2021/12/17 01:13:03;;;;;;;67.97;51.33;;;;;;;;;;5022926;28;20490;-55
2021/12/17 01:15:31;;;;;;;68.50;50.00;;;;;;;;;;5028625;28;20108;-54
2021/12/17 01:18:03;;;;;;;66.80;50.80;;;;;;;;;;5029134;28;20056;-56
2021/12/17 01:36:29;;;;;;;71.03;52.33;;;;;;;;;;5027891;28;20103;-56
2021/12/17 01:44:06;;;;;;;;;;;;;;;;;;5027730;28;20050;-58
2021/12/17 01:46:33;;;;;;;74.67;52.40;;;;;;;;;;5026475;28;19967;-56
2021/12/17 01:59:51;;;;;;;81.23;55.83;;;;;;;;;;5020629;28;20040;-57
2021/12/17 02:02:18;;;;;;;80.43;52.23;;;;;;;;;;5023710;28;20029;-57
2021/12/17 02:04:44;;;;;;;80.13;54.10;;;;;;;;;;5023839;28;20051;-55
2021/12/17 02:07:10;;;;;;;77.07;52.33;;;;;;;;;;5028090;28;20045;-57
2021/12/17 02:12:38;;;;;;;80.00;52.40;;;;;;;;;;4991696;28;20049;-55
2021/12/17 02:20:40;;;;;;;75.63;50.33;;;;;;;;;;5022310;28;20030;-57
2021/12/17 02:29:22;;;;;;;84.87;50.80;;;;;;;;;;4985285;28;20051;-56
2021/12/17 02:31:54;;;;;;;81.80;52.63;;;;;;;;;;4966375;28;20083;-57
2021/12/17 02:36:57;;;;;;;85.57;53.47;;;;;;;;;;5021175;28;20112;-56
2021/12/17 02:42:35;;;;;;;92.07;56.13;;;;;;;;;;5021972;28;20026;-56
2021/12/17 02:47:51;;;;;;;92.75;54.83;;;;;;;;;;4969334;28;20080;-56
2021/12/17 02:50:17;;;;;;;86.30;53.90;;;;;;;;;;5028349;28;20069;-55
2021/12/17 02:52:43;;;;;;;84.53;57.13;;;;;;;;;;5020962;28;20075;-56
2021/12/17 02:55:09;;;;;;;92.03;55.10;;;;;;;;;;5029862;28;20048;-56
2021/12/17 02:57:35;;;;;;;90.43;56.30;;;;;;;;;;5021835;28;20072;-55
2021/12/17 03:00:04;;;;;;;86.00;53.47;;;;;;;;;;5023356;28;20041;-54
2021/12/17 03:02:31;;;;;;;82.97;54.90;;;;;;;;;;5021270;28;20132;-54
2021/12/17 03:04:57;;;;;;;93.57;56.93;;;;;;;;;;5023303;28;20064;-55
2021/12/17 03:07:23;;;;;;;88.37;56.67;;;;;;;;;;5017751;28;20041;-55
2021/12/17 03:10:03;;;;;;;90.53;53.10;;;;;;;;;;5017801;28;20156;-56
2021/12/17 03:12:37;;;;;;;96.63;57.20;;;;;;;;;;5027446;28;20034;-56
2021/12/17 03:15:17;;;;;;;87.33;56.03;;;;;;;;;;5027368;28;20033;-56
2021/12/17 03:25:39;;;;;;;89.43;55.22;;;;;;;;;;5023032;28;20108;-56
2021/12/17 03:28:05;;;;;;;92.37;56.63;;;;;;;;;;5025801;28;20478;-56
2021/12/17 03:30:31;;;;;;;93.70;56.57;;;;;;;;;;5019902;28;20034;-55
2021/12/17 03:32:58;;;;;;;94.47;57.10;;;;;;;;;;5017889;28;20088;-55
2021/12/17 03:35:24;;;;;;;102.90;56.77;;;;;;;;;;5023204;28;20045;-56
2021/12/17 03:37:50;;;;;;;95.60;55.80;;;;;;;;;;5020706;28;20407;-56
2021/12/17 03:40:18;;;;;;;92.70;57.27;;;;;;;;;;5022371;28;20049;-55
2021/12/17 03:42:48;;;;;;;82.27;53.53;;;;;;;;;;5022908;28;20051;-55
2021/12/17 03:45:15;;;;;;;92.93;56.80;;;;;;;;;;5020404;28;20127;-55
2021/12/17 03:47:41;;;;;;;104.17;58.97;;;;;;;;;;5029341;28;20049;-55
2021/12/17 03:50:07;;;;;;;101.43;58.13;;;;;;;;;;5016299;28;20030;-56
2021/12/17 03:52:33;;;;;;;95.93;59.00;;;;;;;;;;5025149;28;20037;-57
2021/12/17 03:54:59;;;;;;;132.03;66.20;;;;;;;;;;5022827;28;20069;-57
2021/12/17 03:57:26;;;;;;;122.93;66.83;;;;;;;;;;5026960;28;20108;-55
2021/12/17 03:59:52;;;;;;;126.43;65.43;;;;;;;;;;5022754;28;20450;-57
2021/12/17 04:02:18;;;;;;;121.50;65.63;;;;;;;;;;5028996;28;20075;-56
2021/12/17 04:04:44;;;;;;;97.70;58.27;;;;;;;;;;5022130;28;20049;-57
2021/12/17 04:07:10;;;;;;;107.87;59.27;;;;;;;;;;5029354;28;20430;-56
2021/12/17 04:09:36;;;;;;;91.60;54.27;;;;;;;;;;5034247;28;20512;-56
2021/12/17 04:12:05;;;;;;;91.33;55.30;;;;;;;;;;5024328;28;20060;-57
2021/12/17 04:14:43;;;;;;;91.40;55.93;;;;;;;;;;5025874;28;20033;-57
2021/12/17 04:17:09;;;;;;;84.07;52.37;;;;;;;;;;5023683;28;20034;-56
2021/12/17 04:19:35;;;;;;;84.97;54.73;;;;;;;;;;5028177;28;20033;-55
2021/12/17 04:22:02;;;;;;;83.60;54.17;;;;;;;;;;5023767;28;20459;-56
2021/12/17 04:24:28;;;;;;;87.60;51.17;;;;;;;;;;5028677;28;20088;-56
2021/12/17 04:26:54;;;;;;;77.73;48.83;;;;;;;;;;5019714;28;20099;-58
2021/12/17 04:29:21;;;;;;;75.97;49.70;;;;;;;;;;5024609;28;20045;-57
2021/12/17 04:31:53;;;;;;;77.93;52.00;;;;;;;;;;5024994;28;20128;-56
2021/12/17 04:34:19;;;;;;;87.17;52.73;;;;;;;;;;5027685;28;20092;-57
2021/12/17 04:36:48;;;;;;;78.57;52.57;;;;;;;;;;5018224;28;20088;-57
2021/12/17 04:39:16;;;;;;;73.37;51.07;;;;;;;;;;5024407;28;20417;-57
2021/12/17 04:41:59;;;;;;;72.90;49.17;;;;;;;;;;5023144;28;20124;-58
2021/12/17 04:44:32;;;;;;;73.13;49.50;;;;;;;;;;5024663;28;20052;-58
2021/12/17 04:57:58;;;;;;;77.97;50.87;;;;;;;;;;5028770;28;20067;-57
2021/12/17 05:00:26;;;;;;;85.83;52.43;;;;;;;;;;5029843;28;20042;-57
2021/12/17 05:02:56;;;;;;;82.50;54.47;;;;;;;;;;5022999;28;20068;-57
2021/12/17 05:05:25;;;;;;;90.90;55.23;;;;;;;;;;5024976;28;20064;-57
2021/12/17 05:07:56;;;;;;;85.23;54.10;;;;;;;;;;5018566;28;20084;-57
2021/12/17 05:19:04;;;;;;;81.55;50.10;;;;;;;;;;5018021;28;20174;-55
2021/12/17 05:21:30;;;;;;;85.30;52.17;;;;;;;;;;5033201;28;20037;-55
2021/12/17 05:23:57;;;;;;;80.40;52.90;;;;;;;;;;5017158;28;20044;-56
2021/12/17 05:26:23;;;;;;;87.23;52.83;;;;;;;;;;5022738;28;20041;-56
2021/12/17 05:28:50;;;;;;;88.90;56.93;;;;;;;;;;5015627;28;20470;-54
2021/12/17 05:31:21;;;;;;;99.97;55.17;;;;;;;;;;5028488;28;20037;-53
2021/12/17 05:33:47;;;;;;;90.07;55.30;;;;;;;;;;5020667;28;20401;-55
2021/12/17 05:36:13;;;;;;;101.27;55.93;;;;;;;;;;5003581;28;20078;-52
2021/12/17 05:38:40;;;;;;;106.80;57.23;;;;;;;;;;5003489;28;20126;-53
2021/12/17 05:41:06;;;;;;;99.33;56.63;;;;;;;;;;5018916;28;20033;-56
2021/12/17 05:43:36;;;;;;;101.17;54.73;;;;;;;;;;5020124;28;20115;-56
2021/12/17 05:48:29;;;;;;;105.70;57.03;;;;;;;;;;5023434;28;20129;-54
2021/12/17 05:50:57;;;;;;;107.27;57.63;;;;;;;;;;5023199;28;20042;-56
2021/12/17 05:53:24;;;;;;;108.03;57.40;;;;;;;;;;5024067;28;20048;-55
2021/12/17 05:55:50;;;;;;;107.40;56.00;;;;;;;;;;5020941;28;20103;-54
2021/12/17 05:58:16;;;;;;;108.87;56.43;;;;;;;;;;5025981;28;20042;-55
2021/12/17 06:00:43;;;;;;;102.80;56.77;;;;;;;;;;5014452;28;20045;-55
2021/12/17 06:03:09;;;;;;;97.07;54.77;;;;;;;;;;5022911;28;20384;-54
2021/12/17 06:05:36;;;;;;;93.47;53.70;;;;;;;;;;5010813;28;20046;-53
2021/12/17 06:08:02;;;;;;;96.27;55.73;;;;;;;;;;5022344;28;20124;-55
2021/12/17 06:10:28;;;;;;;102.93;55.27;;;;;;;;;;5020634;28;20060;-55
2021/12/17 06:12:54;;;;;;;104.60;54.80;;;;;;;;;;5009181;28;20133;-56
2021/12/17 06:15:21;;;;;;;100.13;53.77;;;;;;;;;;5003267;28;20086;-56
2021/12/17 06:17:47;;;;;;;92.00;54.20;;;;;;;;;;5028745;28;20037;-55
2021/12/17 06:20:15;;;;;;;105.93;53.43;;;;;;;;;;5023170;28;20110;-55
2021/12/17 06:22:41;;;;;;;94.70;51.50;;;;;;;;;;5023127;28;20045;-55
2021/12/17 06:25:09;;;;;;;94.93;51.90;;;;;;;;;;5023899;28;20082;-56
2021/12/17 06:27:35;;;;;;;90.30;50.50;;;;;;;;;;5025420;28;20042;-56
2021/12/17 06:30:02;;;;;;;89.37;50.17;;;;;;;;;;5023080;28;20041;-54
2021/12/17 06:32:28;;;;;;;87.93;49.20;;;;;;;;;;5021326;28;21675;-54
2021/12/17 06:34:54;;;;;;;97.40;49.77;;;;;;;;;;5025245;28;20037;-56
2021/12/17 06:37:20;;;;;;;85.07;51.53;;;;;;;;;;5021457;28;20486;-56
2021/12/17 06:39:46;;;;;;;86.20;49.03;;;;;;;;;;5027024;28;20037;-54
2021/12/17 06:42:12;;;;;;;84.93;47.67;;;;;;;;;;5022310;28;20029;-55
2021/12/17 06:44:40;;;;;;;89.70;48.20;;;;;;;;;;5027134;28;20796;-57
2021/12/17 06:47:30;;;;;;;83.60;48.87;;;;;;;;;;5012874;28;20103;-53
2021/12/17 06:58:40;;;;;;;95.80;48.83;;;;;;;;;;5014644;28;20046;-51
2021/12/17 07:06:02;;;;;;;69.72;35.97;;;;;;;;;;5000616;28;20055;-57
2021/12/17 07:11:32;;;;;;;74.57;45.87;;;;;;;;;;5019883;28;20373;-56
2021/12/17 07:40:06;;;;;;;94.67;55.07;;;;;;;;;;5027027;28;20033;-55
2021/12/17 07:42:32;;;;;;;94.77;54.17;;;;;;;;;;5031117;28;20041;-56
2021/12/17 07:44:58;;;;;;;97.90;54.23;;;;;;;;;;5025308;28;20049;-55
2021/12/17 07:47:24;;;;;;;100.00;57.03;;;;;;;;;;5030030;28;20060;-54
2021/12/17 07:49:50;;;;;;;113.27;59.23;;;;;;;;;;5025274;28;20049;-54
2021/12/17 07:52:16;;;;;;;114.00;58.57;;;;;;;;;;5028279;28;20431;-56
2021/12/17 07:54:42;;;;;;;111.47;60.30;;;;;;;;;;5024356;28;20060;-54
2021/12/17 07:57:09;;;;;;;114.70;61.70;;;;;;;;;;5028030;28;20077;-60
2021/12/17 07:59:35;;;;;;;114.87;61.27;;;;;;;;;;5018394;28;20041;-55
2021/12/17 08:02:01;;;;;;;123.37;64.77;;;;;;;;;;5023529;28;20102;-54
2021/12/17 08:04:27;;;;;;;115.97;63.77;;;;;;;;;;5018877;28;20053;-56
2021/12/17 08:06:53;;;;;;;106.13;57.70;;;;;;;;;;5027087;28;20456;-53
2021/12/17 08:09:20;;;;;;;93.60;54.93;;;;;;;;;;5029355;28;20128;-56
2021/12/17 08:11:54;;;;;;;87.77;54.87;;;;;;;;;;5027018;28;20041;-55
2021/12/17 08:14:20;;;;;;;87.77;52.30;;;;;;;;;;5027482;28;20051;-56
2021/12/17 08:17:01;;;;;;;81.70;51.60;;;;;;;;;;5025139;28;20654;-53
2021/12/17 08:25:12;;;;;;;74.20;49.03;;;;;;;;;;5017544;28;20052;-55
2021/12/17 08:28:03;;;;;;;75.37;49.63;;;;;;;;;;5008724;28;20454;-56
2021/12/17 08:30:38;;;;;;;76.47;49.40;;;;;;;;;;5000190;28;20067;-55
2021/12/17 08:33:05;;;;;;;75.50;49.25;;;;;;;;;;5020354;28;20056;-55
2021/12/17 08:35:31;;;;;;;81.50;51.17;;;;;;;;;;5012229;28;20025;-56
2021/12/17 08:37:57;;;;;;;76.20;49.03;;;;;;;;;;5025104;28;20470;-56
2021/12/17 08:40:26;;;;;;;71.30;47.97;;;;;;;;;;5023706;28;20167;-55
2021/12/17 08:42:53;;;;;;;74.27;49.07;;;;;;;;;;5027890;28;20029;-56
2021/12/17 08:45:19;;;;;;;74.90;48.03;;;;;;;;;;5027451;28;20049;-55
2021/12/17 08:47:45;;;;;;;76.77;48.27;;;;;;;;;;5024290;28;20033;-56
2021/12/17 08:50:12;;;;;;;73.80;48.67;;;;;;;;;;5025482;28;20030;-55
2021/12/17 08:52:38;;;;;;;76.27;50.67;;;;;;;;;;5003412;28;20045;-52
2021/12/17 08:55:05;;;;;;;74.20;50.60;;;;;;;;;;5026465;28;20040;-55
2021/12/17 08:57:31;;;;;;;72.73;47.93;;;;;;;;;;5007231;28;20080;-57
2021/12/17 09:00:01;;;;;;;74.57;49.13;;;;;;;;;;5024691;28;20034;-56
2021/12/17 09:02:27;;;;;;;69.63;47.77;;;;;;;;;;5020490;28;20392;-56
2021/12/17 09:04:52;;;;;;;77.57;50.83;;;;;;;;;;5021051;28;20458;-57
2021/12/17 09:07:18;;;;;;;74.77;50.97;;;;;;;;;;5019913;28;20041;-56
2021/12/17 09:09:47;;;;;;;69.37;47.73;;;;;;;;;;5021742;28;20037;-57
2021/12/17 09:12:13;;;;;;;77.77;52.27;;;;;;;;;;5014730;28;20088;-56
2021/12/17 09:14:39;;;;;;;77.10;50.33;;;;;;;;;;5028591;28;20423;-57
2021/12/17 09:17:05;;;;;;;69.57;48.07;;;;;;;;;;5022999;28;20107;-57
2021/12/17 09:19:32;;;;;;;71.17;47.93;;;;;;;;;;5018754;28;20072;-56
2021/12/17 09:21:58;;;;;;;69.00;48.43;;;;;;;;;;5020587;28;20033;-54
2021/12/17 09:24:24;;;;;;;70.73;47.73;;;;;;;;;;5018242;28;20399;-57
2021/12/17 09:26:50;;;;;;;65.43;47.97;;;;;;;;;;5024884;28;20049;-55
2021/12/17 09:29:16;;;;;;;70.27;48.33;;;;;;;;;;5017923;28;20049;-56
2021/12/17 09:31:42;;;;;;;77.07;50.73;;;;;;;;;;5027610;28;20544;-56
2021/12/17 09:34:09;;;;;;;66.30;45.90;;;;;;;;;;5018218;28;20076;-55
2021/12/17 09:36:35;;;;;;;67.87;47.43;;;;;;;;;;5023852;28;20037;-56
2021/12/17 09:39:02;;;;;;;72.70;48.33;;;;;;;;;;5021532;28;20042;-58
2021/12/17 09:41:28;;;;;;;72.67;49.27;;;;;;;;;;5023429;28;20406;-54
2021/12/17 09:43:54;;;;;;;74.87;48.37;;;;;;;;;;5018186;28;20095;-56
2021/12/17 09:46:20;;;;;;;67.20;47.47;;;;;;;;;;5026031;28;20506;-56
2021/12/17 09:48:48;;;;;;;67.13;45.77;;;;;;;;;;5019221;28;20136;-55
2021/12/17 09:51:15;;;;;;;69.57;47.57;;;;;;;;;;5026308;28;20033;-55
2021/12/17 09:53:42;;;;;;;72.00;49.80;;;;;;;;;;5021733;28;20080;-55
2021/12/17 09:56:08;;;;;;;74.37;49.97;;;;;;;;;;5028219;28;20107;-55
2021/12/17 09:58:34;;;;;;;75.40;49.70;;;;;;;;;;5004370;28;20137;-57
2021/12/17 10:01:01;;;;;;;77.17;51.37;;;;;;;;;;5025858;28;20037;-55
2021/12/17 10:03:28;;;;;;;75.80;49.93;;;;;;;;;;5018763;28;20121;-56
2021/12/17 10:05:54;;;;;;;68.77;48.07;;;;;;;;;;5019065;28;20478;-57
2021/12/17 10:08:21;;;;;;;73.80;51.20;;;;;;;;;;5025443;28;20108;-55
2021/12/17 10:10:54;;;;;;;77.13;50.97;;;;;;;;;;5016721;28;20039;-57
2021/12/17 10:13:22;;;;;;;84.63;52.33;;;;;;;;;;5024608;28;20124;-56
2021/12/17 10:15:50;;;;;;;87.60;52.70;;;;;;;;;;5019462;28;20038;-58
2021/12/17 10:18:17;;;;;;;79.27;51.77;;;;;;;;;;5024593;28;20108;-56
2021/12/17 10:20:54;;;;;;;80.47;53.03;;;;;;;;;;5001620;28;20060;-56
2021/12/17 10:23:21;;;;;;;81.77;52.87;;;;;;;;;;5019703;28;20041;-57
2021/12/17 10:25:48;;;;;;;83.70;53.80;;;;;;;;;;5015640;28;20034;-57
2021/12/17 10:28:15;;;;;;;88.63;56.33;;;;;;;;;;5025424;28;20391;-56
2021/12/17 10:30:42;;;;;;;89.27;56.90;;;;;;;;;;5026772;28;20039;-55
2021/12/17 10:33:14;;;;;;;94.27;55.17;;;;;;;;;;5026957;28;20396;-53
2021/12/17 10:35:44;;;;;;;86.20;55.97;;;;;;;;;;5018384;28;20099;-55
2021/12/17 10:38:26;;;;;;;90.73;56.67;;;;;;;;;;5026559;28;20041;-56
2021/12/17 10:41:04;;;;;;;96.13;58.50;;;;;;;;;;5019483;28;20401;-55
2021/12/17 10:43:36;;;;;;;93.87;56.67;;;;;;;;;;5017650;28;20056;-57
2021/12/17 10:46:10;;;;;;;91.43;59.03;;;;;;;;;;5022043;28;20107;-57
2021/12/17 10:48:54;;;;;;;93.17;58.63;;;;;;;;;;5028825;28;20039;-55
2021/12/17 10:51:33;;;;;;;89.63;56.60;;;;;;;;;;4994922;28;20041;-56
2021/12/17 10:54:00;;;;;;;90.53;59.40;;;;;;;;;;5018198;28;20025;-56
2021/12/17 10:56:46;;;;;;;88.87;58.33;;;;;;;;;;5019243;28;20036;-55
2021/12/17 10:59:14;;;;;;;87.67;59.13;;;;;;;;;;4996344;28;20038;-55
2021/12/17 11:01:44;;;;;;;87.17;56.33;;;;;;;;;;5017626;28;20037;-57
2021/12/17 11:04:12;;;;;;;84.47;57.33;;;;;;;;;;5018871;28;20145;-58
2021/12/17 11:06:43;;;;;;;91.93;58.00;;;;;;;;;;5018351;28;20116;-56
2021/12/17 11:09:09;;;;;;;81.47;54.57;;;;;;;;;;5023434;28;20395;-55
2021/12/17 11:11:41;;;;;;;85.57;55.53;;;;;;;;;;5019640;28;22486;-56
2021/12/17 11:14:07;;;;;;;84.00;54.63;;;;;;;;;;5006529;28;20069;-54
2021/12/17 11:16:33;;;;;;;83.83;56.77;;;;;;;;;;5022791;28;20040;-56
2021/12/17 11:18:59;;;;;;;85.47;54.90;;;;;;;;;;5030404;28;20049;-55
2021/12/17 11:21:25;;;;;;;88.43;56.63;;;;;;;;;;5024246;28;20402;-52
2021/12/17 11:23:52;;;;;;;85.07;54.30;;;;;;;;;;5016280;28;20045;-54
2021/12/17 11:26:18;;;;;;;86.40;56.03;;;;;;;;;;5022347;28;20041;-55
2021/12/17 11:28:46;;;;;;;87.03;54.53;;;;;;;;;;5014835;28;20033;-54
2021/12/17 11:31:12;;;;;;;83.60;55.00;;;;;;;;;;5025309;28;20092;-56
2021/12/17 11:33:38;;;;;;;80.00;53.10;;;;;;;;;;5021340;28;20125;-56
2021/12/17 11:36:06;;;;;;;83.80;56.43;;;;;;;;;;5022517;28;20037;-55
2021/12/17 11:38:50;;;;;;;84.00;55.83;;;;;;;;;;5018466;28;20037;-54
2021/12/17 11:41:26;;;;;;;81.60;56.25;;;;;;;;;;4969670;28;20041;-56
2021/12/17 11:43:57;;;;;;;82.73;55.53;;;;;;;;;;5022907;28;20088;-55
2021/12/17 11:46:28;;;;;;;81.87;55.77;;;;;;;;;;5024023;28;20088;-55
2021/12/17 11:48:55;;;;;;;81.27;55.83;;;;;;;;;;5003721;28;20037;-55
2021/12/17 11:51:24;;;;;;;82.40;55.93;;;;;;;;;;5027191;28;20049;-55
2021/12/17 11:53:53;;;;;;;90.50;59.13;;;;;;;;;;5023524;28;20570;-54
2021/12/17 11:56:49;;;;;;;80.80;56.80;;;;;;;;;;5020224;28;20125;-56
2021/12/17 11:59:24;;;;;;;87.10;58.25;;;;;;;;;;4960028;28;20065;-54
2021/12/17 12:01:49;;;;;;;;;;;;;;;;;;5022949;28;20034;-56
2021/12/17 12:04:31;;;;;;;76.97;54.97;;;;;;;;;;5017984;28;19921;-52
2021/12/17 12:07:00;;;;;;;81.03;56.73;;;;;;;;;;5025531;28;20060;-51
2021/12/17 12:09:45;;;;;;;75.83;55.20;;;;;;;;;;5015813;28;20041;-57
2021/12/17 12:12:11;;;;;;;77.72;53.58;;;;;;;;;;5025662;28;20364;-53
2021/12/17 12:14:37;;;;;;;78.63;53.50;;;;;;;;;;5019463;28;20546;-56
2021/12/17 12:17:03;;;;;;;79.50;54.60;;;;;;;;;;5022066;28;20490;-56
2021/12/17 12:19:49;;;;;;;82.90;54.70;;;;;;;;;;5024141;28;20246;-55
2021/12/17 12:22:15;;;;;;;;;;;;;;;;;;4972360;28;20040;-57
2021/12/17 12:24:41;;;;;;;79.90;54.87;;;;;;;;;;5015049;28;19921;-57
2021/12/17 12:27:26;;;;;;;77.30;54.00;;;;;;;;;;5011225;28;20065;-57
2021/12/17 12:29:56;;;;;;;76.43;54.00;;;;;;;;;;4991807;28;20034;-57
2021/12/17 12:32:23;;;;;;;81.30;57.50;;;;;;;;;;5021964;28;20133;-57
2021/12/17 12:34:50;;;;;;;80.80;57.23;;;;;;;;;;5011949;28;20132;-54
2021/12/17 12:37:18;;;;;;;80.90;57.43;;;;;;;;;;5010057;28;20095;-56
2021/12/17 12:39:50;;;;;;;76.63;56.47;;;;;;;;;;4999974;28;20049;-57
2021/12/17 12:42:17;;;;;;;82.63;56.37;;;;;;;;;;5009258;28;20037;-58
2021/12/17 12:44:43;;;;;;;83.60;58.43;;;;;;;;;;5007182;28;20049;-56
2021/12/17 12:47:11;;;;;;;83.13;57.57;;;;;;;;;;5009991;28;20119;-55
2021/12/17 12:49:50;;;;;;;83.87;58.33;;;;;;;;;;5011625;28;20124;-55
2021/12/17 12:52:16;;;;;;;83.73;57.60;;;;;;;;;;4954098;28;20480;-57
2021/12/17 12:54:42;;;;;;;76.77;54.40;;;;;;;;;;5010677;28;20041;-54
2021/12/17 12:57:09;;;;;;;78.17;54.93;;;;;;;;;;5008593;28;20037;-54
2021/12/17 12:59:35;;;;;;;80.03;57.87;;;;;;;;;;5012573;28;20034;-55
2021/12/17 13:02:01;;;;;;;84.43;57.80;;;;;;;;;;5006731;28;20414;-57
2021/12/17 13:04:31;;;;;;;82.67;55.93;;;;;;;;;;5010468;28;20051;-54
2021/12/17 13:06:57;;;;;;;88.77;60.23;;;;;;;;;;5006673;28;20042;-55
2021/12/17 13:09:30;;;;;;;87.37;60.43;;;;;;;;;;5010866;28;20053;-52
2021/12/17 13:11:56;;;;;;;86.27;60.63;;;;;;;;;;5007347;28;20466;-53
2021/12/17 13:14:24;;;;;;;87.93;61.47;;;;;;;;;;5010790;28;20042;-55
2021/12/17 13:22:42;;;;;;;74.82;53.78;;;;;;;;;;4985107;28;20414;-55
2021/12/17 13:25:08;;;;;;;80.80;53.10;;;;;;;;;;5011851;28;20041;-55
2021/12/17 13:27:34;;;;;;;76.10;52.93;;;;;;;;;;5005275;28;20045;-52
2021/12/17 13:30:00;;;;;;;73.53;52.83;;;;;;;;;;5010380;28;20034;-56
2021/12/17 13:32:28;;;;;;;73.70;50.07;;;;;;;;;;5000675;28;20160;-56
2021/12/17 13:34:56;;;;;;;77.17;53.27;;;;;;;;;;5010989;28;20038;-56
2021/12/17 13:37:24;;;;;;;75.47;54.03;;;;;;;;;;5007326;28;20051;-55
2021/12/17 13:39:54;;;;;;;80.17;56.23;;;;;;;;;;5010038;28;20041;-54
2021/12/17 13:42:20;;;;;;;78.00;53.03;;;;;;;;;;5007099;28;20045;-56
2021/12/17 13:44:57;;;;;;;73.60;53.23;;;;;;;;;;5010153;28;20046;-54
2021/12/17 13:47:33;;;;;;;73.43;52.80;;;;;;;;;;5007149;28;20041;-55
2021/12/17 13:50:08;;;;;;;75.27;53.90;;;;;;;;;;5001563;28;20080;-58
2021/12/17 13:52:39;;;;;;;76.67;55.13;;;;;;;;;;5003042;28;20141;-56
2021/12/17 13:55:10;;;;;;;78.03;54.70;;;;;;;;;;5008185;28;20530;-57
2021/12/17 13:57:36;;;;;;;81.17;55.37;;;;;;;;;;5010172;28;20045;-56
2021/12/17 14:00:04;;;;;;;75.07;53.17;;;;;;;;;;5005591;28;20042;-56
2021/12/17 14:02:33;;;;;;;78.80;53.50;;;;;;;;;;5009374;28;20053;-56
2021/12/17 14:05:02;;;;;;;95.03;64.93;;;;;;;;;;5006442;28;20046;-57
2021/12/17 14:07:29;;;;;;;97.53;65.37;;;;;;;;;;5009713;28;20077;-57
2021/12/17 14:10:10;;;;;;;97.90;66.70;;;;;;;;;;5006572;28;20050;-53
2021/12/17 14:12:39;;;;;;;96.03;64.47;;;;;;;;;;5014459;28;20364;-55
2021/12/17 14:15:10;;;;;;;104.67;67.67;;;;;;;;;;5010549;28;20037;-55
2021/12/17 14:17:37;;;;;;;105.40;67.30;;;;;;;;;;4991942;28;20065;-57
2021/12/17 14:20:38;;;;;;;104.00;68.13;;;;;;;;;;5006736;28;20060;-54
2021/12/17 14:23:05;;;;;;;108.40;70.90;;;;;;;;;;4898370;29;20044;-57
2021/12/17 14:25:39;;;;;;;104.77;67.87;;;;;;;;;;4914902;29;20048;-57
2021/12/17 14:28:16;;;;;;;100.57;65.68;;;;;;;;;;4920313;29;20050;-56
2021/12/17 14:30:44;;;;;;;105.17;68.57;;;;;;;;;;4914982;29;20052;-55
2021/12/17 14:33:12;;;;;;;106.90;68.70;;;;;;;;;;4920021;29;20040;-55
2021/12/17 14:35:45;;;;;;;122.43;73.30;;;;;;;;;;4914491;29;20046;-52
2021/12/17 14:38:12;;;;;;;109.30;67.93;;;;;;;;;;4921269;29;20040;-57
2021/12/17 14:40:44;;;;;;;115.20;71.43;;;;;;;;;;4921631;29;20135;-57
2021/12/17 14:43:22;;;;;;;112.87;68.37;;;;;;;;;;4900927;28;20043;-56
2021/12/17 14:45:58;;;;;;;103.43;67.83;;;;;;;;;;4916712;29;20082;-58
2021/12/17 14:48:40;;;;;;;107.23;66.57;;;;;;;;;;4913895;29;20079;-57
2021/12/17 15:04:44;;;;;;;108.13;70.13;;;;;;;;;;5000038;28;20041;-55
2021/12/17 15:07:10;;;;;;;109.37;67.77;;;;;;;;;;5002593;28;20025;-57
2021/12/17 15:09:39;;;;;;;112.27;72.23;;;;;;;;;;4974912;28;20398;-55
2021/12/17 15:12:55;;;;;;;98.90;63.70;;;;;;;;;;5007045;28;20053;-54
2021/12/17 15:14:52;;;;;;;87.80;58.23;;;;;;;;;;4996581;28;20176;-56
2021/12/17 15:17:20;;;;;;;91.27;61.00;;;;;;;;;;5007387;28;20160;-56
2021/12/17 15:19:46;;;;;;;86.90;58.20;;;;;;;;;;5003011;28;20037;-54
2021/12/17 15:22:12;;;;;;;90.90;57.93;;;;;;;;;;5006606;28;20041;-56
2021/12/17 15:24:38;;;;;;;88.20;58.70;;;;;;;;;;4984747;28;20115;-55
2021/12/17 15:27:05;;;;;;;89.60;57.63;;;;;;;;;;5017339;28;20029;-56
2021/12/17 15:29:31;;;;;;;94.30;57.93;;;;;;;;;;5021808;28;20099;-56
2021/12/17 15:31:57;;;;;;;87.70;58.63;;;;;;;;;;5028660;28;20045;-53
2021/12/17 15:34:23;;;;;;;89.27;57.93;;;;;;;;;;5021918;28;20045;-55
2021/12/17 15:36:50;;;;;;;92.67;59.30;;;;;;;;;;5027249;28;20033;-57
2021/12/17 15:39:16;;;;;;;85.83;56.47;;;;;;;;;;5026054;28;20050;-55
2021/12/17 15:41:42;;;;;;;87.70;57.00;;;;;;;;;;5021300;28;20351;-56
2021/12/17 15:44:09;;;;;;;87.37;58.97;;;;;;;;;;5023965;28;20482;-55
2021/12/17 15:46:36;;;;;;;85.40;57.47;;;;;;;;;;5018326;28;20057;-56
2021/12/17 15:49:02;;;;;;;86.10;56.13;;;;;;;;;;5010602;28;20038;-51
2021/12/17 15:51:28;;;;;;;88.13;58.53;;;;;;;;;;5007792;28;20052;-54
2021/12/17 15:53:55;;;;;;;89.73;58.47;;;;;;;;;;5030956;28;20394;-56
2021/12/17 15:56:21;;;;;;;95.17;60.23;;;;;;;;;;5021897;28;20030;-57
2021/12/17 15:58:47;;;;;;;101.70;62.10;;;;;;;;;;5029212;28;20049;-56
2021/12/17 16:01:13;;;;;;;90.80;58.60;;;;;;;;;;5024362;28;20047;-53
2021/12/17 16:03:42;;;;;;;96.93;61.87;;;;;;;;;;5031052;28;20522;-54
2021/12/17 16:06:08;;;;;;;95.43;59.77;;;;;;;;;;5024558;28;20045;-56
2021/12/17 16:08:37;;;;;;;92.53;57.50;;;;;;;;;;5015982;28;20155;-52
2021/12/17 16:21:56;;;;;;;92.37;59.20;;;;;;;;;;5009965;28;20044;-57
2021/12/17 16:24:22;;;;;;;86.20;56.93;;;;;;;;;;5015428;28;20053;-55
2021/12/17 16:26:48;;;;;;;94.57;59.20;;;;;;;;;;4993375;28;20040;-54
2021/12/17 16:29:18;;;;;;;96.13;60.00;;;;;;;;;;5022294;28;20033;-55
2021/12/17 16:31:44;;;;;;;93.10;57.77;;;;;;;;;;5020806;28;20487;-56
2021/12/17 16:34:10;;;;;;;90.30;58.33;;;;;;;;;;5030364;28;20475;-57
2021/12/17 16:36:38;;;;;;;91.17;59.07;;;;;;;;;;5019460;28;20049;-56
2021/12/17 16:39:05;;;;;;;96.37;59.13;;;;;;;;;;5022421;28;20476;-53
2021/12/17 16:41:31;;;;;;;89.47;56.23;;;;;;;;;;5027907;28;20410;-55
2021/12/17 16:44:06;;;;;;;91.03;59.03;;;;;;;;;;5022397;28;20041;-54
2021/12/17 16:49:10;;;;;;;88.67;57.30;;;;;;;;;;5022917;28;20406;-53
2021/12/17 16:51:36;;;;;;;89.70;58.57;;;;;;;;;;5026546;28;20040;-55
2021/12/17 16:54:02;;;;;;;91.47;59.03;;;;;;;;;;5024073;28;20124;-51
2021/12/17 16:56:28;;;;;;;95.83;59.13;;;;;;;;;;5027639;28;20049;-53
2021/12/17 16:58:55;;;;;;;88.63;58.30;;;;;;;;;;5013203;28;20041;-56
2021/12/17 17:01:21;;;;;;;90.30;58.40;;;;;;;;;;5011613;28;20048;-56
2021/12/17 17:03:47;;;;;;;90.73;58.77;;;;;;;;;;5024506;28;20045;-57
2021/12/17 17:06:13;;;;;;;86.30;57.80;;;;;;;;;;5026876;28;20566;-55
2021/12/17 17:08:39;;;;;;;89.27;58.90;;;;;;;;;;5025089;28;20120;-57
2021/12/17 17:11:08;;;;;;;89.57;59.47;;;;;;;;;;5022695;28;20342;-54
2021/12/17 17:13:35;;;;;;;85.83;55.10;;;;;;;;;;5022655;28;20040;-53
2021/12/17 17:16:04;;;;;;;77.70;54.43;;;;;;;;;;5023768;28;20084;-56
2021/12/17 17:18:34;;;;;;;76.10;52.63;;;;;;;;;;5020031;28;20042;-53
2021/12/17 17:21:03;;;;;;;77.07;54.00;;;;;;;;;;5025315;28;20049;-54
2021/12/17 17:23:30;;;;;;;73.73;51.87;;;;;;;;;;5023459;28;20558;-56
2021/12/17 17:25:56;;;;;;;73.20;49.47;;;;;;;;;;5026298;28;20038;-58
2021/12/17 17:28:22;;;;;;;79.80;53.43;;;;;;;;;;5026712;28;20049;-55
2021/12/17 17:30:51;;;;;;;76.63;51.90;;;;;;;;;;5018683;28;20081;-57
2021/12/17 17:33:18;;;;;;;70.50;50.07;;;;;;;;;;5023798;28;20709;-56
2021/12/17 17:35:44;;;;;;;79.20;51.53;;;;;;;;;;5019641;28;20049;-51
2021/12/17 17:38:10;;;;;;;69.97;49.90;;;;;;;;;;5024837;28;20048;-57
2021/12/17 17:40:37;;;;;;;71.57;50.47;;;;;;;;;;5020169;28;20037;-57
2021/12/17 17:43:05;;;;;;;73.17;50.23;;;;;;;;;;5026338;28;20041;-55
2021/12/17 17:45:35;;;;;;;74.63;50.53;;;;;;;;;;5021725;28;20593;-57